Time;durP1;ratioP1;P1;durP2;ratioP2;P2;SDS_P1;SDS_P2;PMS_P1;PMS_P2;Temp;Humidity;BMP_temperature;BMP_pressure;BME280_temperature;BME280_humidity;BME280_pressure;Samples;Min_cycle;Max_cycle;Signal;HPM_P1;HPM_P2
2023/05/01 00:02:23;;;;;;;;;;;;;;;15.40;66.54;99612.19;5093976;28;20280;-36
2023/05/01 00:04:48;;;;;;;;;;;;;;;15.58;66.33;99608.50;5094127;28;19917;-36
2023/05/01 00:07:13;;;;;;;;;;;;;;;15.68;66.55;99601.72;5094270;28;19974;-37
2023/05/01 00:09:39;;;;;;;;;;;;;;;15.83;66.80;99591.28;5094124;28;20436;-37
2023/05/01 00:12:05;;;;;;;;;;;;;;;16.01;65.66;99583.00;5093816;28;19912;-37
2023/05/01 00:14:30;;;;;;;;;;;;;;;16.12;64.80;99577.81;5094136;28;20129;-37
2023/05/01 00:16:55;;;;;;;;;;;;;;;16.27;64.80;99572.66;5093859;28;19974;-36
2023/05/01 00:19:20;;;;;;;;;;;;;;;16.41;64.76;99567.78;5094421;28;19957;-36
2023/05/01 00:21:47;;;;;;;;;;;;;;;16.48;64.15;99573.78;5094086;28;20350;-36
2023/05/01 00:24:15;;;;;;;;;;;;;;;16.55;63.64;99570.94;5093592;28;19946;-37
2023/05/01 00:26:41;;;;;;;;;;;;;;;16.55;63.63;99569.06;5093574;28;19924;-36
2023/05/01 00:29:06;;;;;;;;;;;;;;;16.51;63.96;99569.81;5093728;28;19969;-37
2023/05/01 00:31:31;;;;;;;;;;;;;;;15.90;64.34;99532.09;5093592;28;19912;-36
2023/05/01 00:33:57;;;;;;;;;;;;;;;16.27;64.00;99569.19;5093466;28;19916;-37
2023/05/01 00:36:22;;;;;;;;;;;;;;;16.03;65.37;99567.47;5093596;28;19912;-36
2023/05/01 00:38:47;;;;;;;;;;;;;;;16.16;64.45;99566.34;5093246;28;19970;-36
2023/05/01 00:41:13;;;;;;;;;;;;;;;16.12;64.79;99567.06;5093443;28;19919;-36
2023/05/01 00:43:38;;;;;;;;;;;;;;;16.07;64.73;99570.50;5093265;28;19912;-36
2023/05/01 00:46:03;;;;;;;;;;;;;;;16.13;65.16;99564.16;5093236;28;19912;-36
2023/05/01 00:48:29;;;;;;;;;;;;;;;16.29;64.38;99569.75;5093353;28;19912;-36
2023/05/01 00:50:55;;;;;;;;;;;;;;;16.15;63.95;99563.91;5093377;28;19994;-36
2023/05/01 00:53:21;;;;;;;;;;;;;;;16.25;64.83;99568.63;5093392;28;19920;-36
2023/05/01 00:55:47;;;;;;;;;;;;;;;16.23;63.74;99569.66;5093465;28;19924;-36
2023/05/01 00:58:12;;;;;;;;;;;;;;;16.33;63.41;99576.25;5093109;28;19920;-36
2023/05/01 01:00:37;;;;;;;;;;;;;;;16.57;62.51;99574.19;5092878;28;19920;-36
2023/05/01 01:03:03;;;;;;;;;;;;;;;16.57;62.39;99574.19;5092915;28;19961;-36
2023/05/01 01:05:31;;;;;;;;;;;;;;;16.49;61.93;99578.13;5092516;28;20248;-36
2023/05/01 01:07:57;;;;;;;;;;;;;;;16.44;62.15;99580.72;5093155;28;19912;-36
2023/05/01 01:10:57;;;;;;;;;;;;;;;16.55;61.84;99581.69;5093495;28;19943;-36
2023/05/01 01:13:25;;;;;;;;;;;;;;;16.72;61.00;99587.03;5049998;28;19923;-36
2023/05/01 01:15:57;;;;;;;;;;;;;;;15.73;64.08;99593.75;5084342;28;20089;-36
2023/05/01 01:18:22;;;;;;;;;;;;;;;16.15;62.85;99588.88;5092907;28;19912;-36
2023/05/01 01:21:00;;;;;;;;;;;;;;;16.26;62.89;99592.53;5092767;28;20053;-36
2023/05/01 01:23:31;;;;;;;;;;;;;;;16.50;61.74;99586.97;5092160;28;20284;-35
2023/05/01 01:26:29;;;;;;;;;;;;;;;16.23;61.85;99595.69;5092265;28;20257;-36
2023/05/01 01:29:02;;;;;;;;;;;;;;;16.42;62.68;99590.91;5076790;28;20064;-36
2023/05/01 01:31:31;;;;;;;;;;;;;;;16.50;62.13;99595.84;5092480;28;19912;-37
2023/05/01 01:34:03;;;;;;;;;;;;;;;16.26;62.15;99587.16;5092202;28;19972;-36
2023/05/01 01:36:54;;;;;;;;;;;;;;;16.14;62.20;99597.97;5092308;28;19995;-36
2023/05/01 01:39:26;;;;;;;;;;;;;;;16.08;63.07;99604.31;5092422;28;19916;-35
2023/05/01 01:41:52;;;;;;;;;;;;;;;16.32;61.63;99598.81;5090901;28;19923;-36
2023/05/01 01:44:19;;;;;;;;;;;;;;;16.09;61.46;99607.81;5092324;28;19912;-36
2023/05/01 01:46:46;;;;;;;;;;;;;;;15.89;62.69;99603.72;5091962;28;19912;-37
2023/05/01 01:49:15;;;;;;;;;;;;;;;16.05;62.30;99609.34;5091879;28;19912;-36
2023/05/01 01:51:41;;;;;;;;;;;;;;;15.67;63.03;99611.63;5091938;28;19912;-37
2023/05/01 01:54:07;;;;;;;;;;;;;;;15.39;64.67;99615.13;5091882;28;19981;-36
2023/05/01 01:56:33;;;;;;;;;;;;;;;15.24;64.88;99618.28;5091760;28;20035;-36
2023/05/01 01:59:00;;;;;;;;;;;;;;;14.61;67.89;99615.34;5092153;28;19919;-36
2023/05/01 02:01:25;;;;;;;;;;;;;;;14.75;67.91;99613.22;5091601;28;19924;-36
2023/05/01 02:03:52;;;;;;;;;;;;;;;15.22;66.15;99610.47;5091661;28;20283;-37
2023/05/01 02:06:18;;;;;;;;;;;;;;;15.28;65.58;99613.28;5092177;28;19916;-37
2023/05/01 02:08:45;;;;;;;;;;;;;;;15.61;64.99;99612.56;5091801;28;19986;-37
2023/05/01 02:11:13;;;;;;;;;;;;;;;15.79;64.92;99606.25;5091681;28;19947;-36
2023/05/01 02:13:39;;;;;;;;;;;;;;;15.95;64.06;99607.31;5091684;28;19965;-37
2023/05/01 02:16:05;;;;;;;;;;;;;;;15.98;63.68;99609.53;5091129;28;20285;-37
2023/05/01 02:18:31;;;;;;;;;;;;;;;15.88;63.37;99615.53;5090654;28;20315;-37
2023/05/01 02:20:58;;;;;;;;;;;;;;;15.57;64.68;99617.63;5091013;28;19911;-37
2023/05/01 02:23:25;;;;;;;;;;;;;;;14.89;66.19;99621.03;5091664;28;19919;-37
2023/05/01 02:25:52;;;;;;;;;;;;;;;14.75;67.20;99621.25;5091285;28;20007;-37
2023/05/01 02:28:19;;;;;;;;;;;;;;;14.69;67.32;99624.09;5091267;28;19986;-37
2023/05/01 02:30:45;;;;;;;;;;;;;;;14.96;67.03;99627.88;5090988;28;20002;-37
2023/05/01 02:33:11;;;;;;;;;;;;;;;15.13;66.20;99624.50;5091223;28;19954;-37
2023/05/01 02:35:40;;;;;;;;;;;;;;;15.28;65.40;99618.63;5089985;28;20227;-37
2023/05/01 02:38:06;;;;;;;;;;;;;;;15.34;65.56;99620.38;5091249;28;20263;-37
2023/05/01 02:40:32;;;;;;;;;;;;;;;15.36;65.88;99615.56;5090948;28;19912;-38
2023/05/01 02:43:01;;;;;;;;;;;;;;;15.24;65.58;99613.75;5091348;28;19912;-37
2023/05/01 02:45:28;;;;;;;;;;;;;;;15.07;66.47;99620.88;5091269;28;20006;-37
2023/05/01 02:47:55;;;;;;;;;;;;;;;14.99;67.03;99626.63;5091117;28;19943;-37
2023/05/01 02:50:21;;;;;;;;;;;;;;;15.00;66.92;99637.09;5091279;28;19919;-37
2023/05/01 02:52:46;;;;;;;;;;;;;;;15.14;66.58;99648.38;5090970;28;19916;-37
2023/05/01 02:55:12;;;;;;;;;;;;;;;15.25;66.27;99644.88;5091149;28;19920;-37
2023/05/01 02:57:37;;;;;;;;;;;;;;;15.38;65.76;99640.28;5091326;28;19951;-37
2023/05/01 03:00:03;;;;;;;;;;;;;;;15.26;66.64;99637.63;5090906;28;20044;-37
2023/05/01 03:02:28;;;;;;;;;;;;;;;15.20;65.96;99638.59;5091214;28;20338;-37
2023/05/01 03:04:53;;;;;;;;;;;;;;;15.35;65.54;99649.63;5091181;28;20401;-37
2023/05/01 03:07:19;;;;;;;;;;;;;;;15.36;65.67;99655.78;5091079;28;19919;-37
2023/05/01 03:09:44;;;;;;;;;;;;;;;15.28;66.48;99658.84;5090965;28;20283;-37
2023/05/01 03:12:09;;;;;;;;;;;;;;;15.07;66.93;99660.28;5090809;28;19959;-37
2023/05/01 03:14:35;;;;;;;;;;;;;;;14.90;67.51;99660.19;5090769;28;19963;-37
2023/05/01 03:17:00;;;;;;;;;;;;;;;14.82;68.10;99662.16;5091145;28;20010;-37
2023/05/01 03:19:25;;;;;;;;;;;;;;;15.03;67.21;99662.63;5090877;28;19952;-37
2023/05/01 03:21:51;;;;;;;;;;;;;;;15.07;66.89;99660.28;5090826;28;19916;-37
2023/05/01 03:24:16;;;;;;;;;;;;;;;14.85;68.11;99661.69;5090852;28;20002;-37
2023/05/01 03:26:41;;;;;;;;;;;;;;;14.78;67.66;99662.88;5090573;28;20283;-37
2023/05/01 03:29:07;;;;;;;;;;;;;;;14.56;69.13;99665.25;5093483;28;19974;-37
2023/05/01 03:31:32;;;;;;;;;;;;;;;14.65;69.34;99667.38;5095091;28;19916;-37
2023/05/01 03:33:58;;;;;;;;;;;;;;;14.86;68.66;99667.88;5094715;28;19927;-37
2023/05/01 03:36:24;;;;;;;;;;;;;;;15.05;68.41;99668.56;5094559;28;19996;-37
2023/05/01 03:38:49;;;;;;;;;;;;;;;15.10;67.86;99662.47;5094658;28;19919;-37
2023/05/01 03:41:14;;;;;;;;;;;;;;;15.08;68.52;99660.06;5094435;28;19977;-37
2023/05/01 03:43:40;;;;;;;;;;;;;;;15.14;67.96;99653.75;5094888;28;19935;-37
2023/05/01 03:46:05;;;;;;;;;;;;;;;15.18;68.17;99662.94;5094549;28;20402;-36
2023/05/01 03:48:30;;;;;;;;;;;;;;;15.21;67.61;99659.81;5094497;28;20379;-37
2023/05/01 03:50:57;;;;;;;;;;;;;;;15.28;67.90;99666.88;5094458;28;19912;-37
2023/05/01 03:53:22;;;;;;;;;;;;;;;15.36;67.44;99661.97;5094031;28;19920;-37
2023/05/01 03:55:47;;;;;;;;;;;;;;;15.55;67.61;99678.69;5093875;28;19927;-37
2023/05/01 03:58:13;;;;;;;;;;;;;;;15.70;66.84;99678.19;5094479;28;19912;-36
2023/05/01 04:00:38;;;;;;;;;;;;;;;15.89;66.44;99688.78;5093724;28;19912;-36
2023/05/01 04:03:04;;;;;;;;;;;;;;;15.90;66.13;99693.91;5093660;28;20008;-36
2023/05/01 04:05:29;;;;;;;;;;;;;;;16.02;64.68;99699.22;5094346;28;19955;-37
2023/05/01 04:07:55;;;;;;;;;;;;;;;16.20;64.57;99706.25;5094170;28;19912;-36
2023/05/01 04:10:20;;;;;;;;;;;;;;;16.30;64.46;99697.59;5093997;28;19913;-37
2023/05/01 04:12:45;;;;;;;;;;;;;;;16.38;63.74;99708.72;5093698;28;19916;-36
2023/05/01 04:15:11;;;;;;;;;;;;;;;16.52;63.35;99706.53;5093371;28;20600;-37
2023/05/01 04:17:36;;;;;;;;;;;;;;;16.96;62.13;99705.91;5093191;28;19912;-36
2023/05/01 04:20:04;;;;;;;;;;;;;;;17.52;61.57;99709.38;5092947;28;20359;-37
2023/05/01 04:22:29;;;;;;;;;;;;;;;18.10;60.31;99717.03;5093002;28;20508;-36
2023/05/01 04:24:55;;;;;;;;;;;;;;;18.42;56.74;99718.97;5092622;28;19912;-36
2023/05/01 04:27:20;;;;;;;;;;;;;;;18.65;56.29;99715.13;5092688;28;19947;-37
2023/05/01 04:29:45;;;;;;;;;;;;;;;19.01;56.47;99726.19;5092903;28;19939;-36
2023/05/01 04:32:11;;;;;;;;;;;;;;;19.15;55.85;99719.25;5092917;28;19920;-36
2023/05/01 04:34:36;;;;;;;;;;;;;;;19.13;54.32;99719.56;5092797;28;20020;-37
2023/05/01 04:37:02;;;;;;;;;;;;;;;19.47;53.33;99718.38;5092750;28;20547;-36
2023/05/01 04:39:27;;;;;;;;;;;;;;;19.61;52.72;99727.63;5091706;28;19963;-36
2023/05/01 04:41:53;;;;;;;;;;;;;;;19.75;52.36;99727.97;5092540;28;20009;-36
2023/05/01 04:44:18;;;;;;;;;;;;;;;20.16;51.93;99727.25;5092776;28;20010;-37
2023/05/01 04:46:43;;;;;;;;;;;;;;;20.64;51.50;99728.69;5090250;28;20224;-36
2023/05/01 04:49:09;;;;;;;;;;;;;;;21.15;49.56;99729.72;5085759;28;19916;-36
2023/05/01 04:51:34;;;;;;;;;;;;;;;21.46;48.18;99728.59;5091027;28;20364;-37
2023/05/01 04:54:00;;;;;;;;;;;;;;;21.83;47.42;99730.06;5091716;28;19916;-37
2023/05/01 04:56:26;;;;;;;;;;;;;;;22.21;47.54;99730.38;5090983;28;19969;-37
2023/05/01 04:58:51;;;;;;;;;;;;;;;22.09;46.83;99740.78;5090939;28;20404;-37
2023/05/01 05:01:16;;;;;;;;;;;;;;;22.56;45.81;99738.56;5097711;28;19985;-35
2023/05/01 05:03:42;;;;;;;;;;;;;;;22.44;45.46;99703.69;5107414;28;19918;-35
2023/05/01 05:06:07;;;;;;;;;;;;;;;22.68;45.64;99738.22;5091707;28;19912;-35
2023/05/01 05:08:33;;;;;;;;;;;;;;;22.65;45.87;99745.81;5092223;28;19912;-36
2023/05/01 05:10:59;;;;;;;;;;;;;;;22.97;44.77;99743.66;5092246;28;20014;-36
2023/05/01 05:13:24;;;;;;;;;;;;;;;23.59;43.50;99749.28;5092324;28;19959;-36
2023/05/01 05:15:50;;;;;;;;;;;;;;;24.09;42.55;99747.03;5092216;28;19919;-35
2023/05/01 05:18:15;;;;;;;;;;;;;;;24.14;41.84;99748.88;5091784;28;19931;-35
2023/05/01 05:20:40;;;;;;;;;;;;;;;24.23;41.86;99749.81;5091862;28;20124;-35
2023/05/01 05:23:06;;;;;;;;;;;;;;;24.69;41.07;99756.50;5091709;28;20232;-36
2023/05/01 05:25:31;;;;;;;;;;;;;;;24.86;41.45;99764.91;5091887;28;19924;-35
2023/05/01 05:27:58;;;;;;;;;;;;;;;25.51;40.42;99761.34;5091965;28;19923;-36
2023/05/01 05:30:23;;;;;;;;;;;;;;;25.24;40.60;99762.09;5091121;28;19912;-36
2023/05/01 05:32:49;;;;;;;;;;;;;;;25.03;39.51;99752.66;5091663;28;19916;-35
2023/05/01 05:35:14;;;;;;;;;;;;;;;25.50;39.14;99756.19;5091757;28;19916;-36
2023/05/01 05:37:40;;;;;;;;;;;;;;;26.30;37.53;99756.69;5091650;28;20321;-36
2023/05/01 05:40:05;;;;;;;;;;;;;;;26.76;36.45;99752.88;5091503;28;19954;-36
2023/05/01 05:42:31;;;;;;;;;;;;;;;27.10;35.60;99760.47;5091319;28;19912;-36
2023/05/01 05:44:56;;;;;;;;;;;;;;;27.54;34.77;99765.34;5091456;28;19920;-36
2023/05/01 05:47:21;;;;;;;;;;;;;;;28.04;34.08;99763.06;5091406;28;19915;-36
2023/05/01 05:49:47;;;;;;;;;;;;;;;27.89;32.95;99763.53;5091119;28;19947;-36
2023/05/01 05:52:12;;;;;;;;;;;;;;;27.56;34.15;99766.63;5090987;28;19920;-36
2023/05/01 05:54:38;;;;;;;;;;;;;;;27.95;33.33;99765.00;5087920;28;19938;-36
2023/05/01 05:57:03;;;;;;;;;;;;;;;28.08;32.88;99764.06;5091285;28;19919;-36
2023/05/01 05:59:28;;;;;;;;;;;;;;;27.93;32.45;99771.91;5078860;28;20348;-36
2023/05/01 06:01:54;;;;;;;;;;;;;;;27.55;33.84;99775.97;5090401;28;19951;-35
2023/05/01 06:04:19;;;;;;;;;;;;;;;27.97;32.39;99770.94;5089747;28;19951;-35
2023/05/01 06:06:44;;;;;;;;;;;;;;;27.97;31.73;99773.69;5090801;28;19912;-35
2023/05/01 06:09:11;;;;;;;;;;;;;;;28.32;31.01;99778.38;5090848;28;20412;-37
2023/05/01 06:11:36;;;;;;;;;;;;;;;28.39;31.23;99779.50;5090099;28;20014;-36
2023/05/01 06:14:02;;;;;;;;;;;;;;;28.73;30.68;99786.13;5091015;28;19999;-39
2023/05/01 06:16:27;;;;;;;;;;;;;;;28.88;30.40;99778.53;5090787;28;19919;-36
2023/05/01 06:18:53;;;;;;;;;;;;;;;29.17;30.61;99791.56;5090683;28;19966;-36
2023/05/01 06:21:18;;;;;;;;;;;;;;;29.45;30.08;99789.16;5088961;28;20430;-37
2023/05/01 06:23:43;;;;;;;;;;;;;;;29.63;29.81;99790.69;5091470;28;19915;-35
2023/05/01 06:26:08;;;;;;;;;;;;;;;29.29;30.39;99790.88;5098626;28;19932;-35
2023/05/01 06:28:34;;;;;;;;;;;;;;;29.02;31.22;99784.63;5095121;28;19920;-36
2023/05/01 06:30:59;;;;;;;;;;;;;;;27.95;32.86;99784.13;5100865;28;20280;-36
2023/05/01 06:33:24;;;;;;;;;;;;;;;28.74;32.30;99784.19;5090077;28;20029;-36
2023/05/01 06:35:50;;;;;;;;;;;;;;;29.10;31.73;99780.25;5095400;28;19916;-35
2023/05/01 06:38:15;;;;;;;;;;;;;;;29.95;30.59;99787.63;5099969;28;19911;-36
2023/05/01 06:40:41;;;;;;;;;;;;;;;30.48;29.78;99783.44;5088374;28;19916;-36
2023/05/01 06:43:06;;;;;;;;;;;;;;;30.67;29.49;99784.84;5088731;28;19923;-36
2023/05/01 06:45:31;;;;;;;;;;;;;;;30.65;28.77;99784.41;5099508;28;19920;-36
2023/05/01 06:47:57;;;;;;;;;;;;;;;30.82;28.55;99791.66;5092411;28;19916;-41
2023/05/01 06:50:22;;;;;;;;;;;;;;;30.84;28.43;99794.88;5095469;28;20459;-40
2023/05/01 06:52:47;;;;;;;;;;;;;;;30.12;28.12;99804.00;5093851;28;19919;-41
2023/05/01 06:55:13;;;;;;;;;;;;;;;30.35;27.92;99801.78;5097841;28;19915;-41
2023/05/01 06:57:38;;;;;;;;;;;;;;;30.33;29.15;99809.53;5087511;28;20008;-40
2023/05/01 07:00:04;;;;;;;;;;;;;;;30.90;27.62;99808.09;5091344;28;20479;-40
2023/05/01 07:02:30;;;;;;;;;;;;;;;31.26;27.96;99814.00;5089333;28;19912;-45
2023/05/01 07:04:55;;;;;;;;;;;;;;;30.70;27.67;99811.66;5092797;28;19912;-40
2023/05/01 07:07:21;;;;;;;;;;;;;;;30.91;27.40;99817.94;5091469;28;19923;-40
2023/05/01 07:09:46;;;;;;;;;;;;;;;30.13;28.51;99818.53;5092510;28;19916;-40
2023/05/01 07:12:12;;;;;;;;;;;;;;;30.52;27.75;99824.72;5092206;28;20517;-40
2023/05/01 07:14:37;;;;;;;;;;;;;;;30.10;27.42;99824.66;5093357;28;19923;-40
2023/05/01 07:17:02;;;;;;;;;;;;;;;30.39;26.93;99826.59;5093362;28;19919;-40
2023/05/01 07:19:28;;;;;;;;;;;;;;;31.01;26.72;99815.91;5093336;28;19923;-40
2023/05/01 07:21:53;;;;;;;;;;;;;;;30.58;26.99;99828.88;5092913;28;20317;-40
2023/05/01 07:24:20;;;;;;;;;;;;;;;30.45;27.71;99830.75;5093099;28;20370;-41
2023/05/01 07:26:45;;;;;;;;;;;;;;;30.68;26.95;99836.69;5092263;28;20372;-41
2023/05/01 07:29:10;;;;;;;;;;;;;;;30.67;25.73;99820.56;5092882;28;19923;-40
2023/05/01 07:31:37;;;;;;;;;;;;;;;30.65;26.84;99831.88;5092588;28;19965;-39
2023/05/01 07:34:03;;;;;;;;;;;;;;;29.78;26.99;99827.75;5092450;28;19927;-41
2023/05/01 07:36:28;;;;;;;;;;;;;;;30.59;27.21;99828.53;5092821;28;19912;-40
2023/05/01 07:38:54;;;;;;;;;;;;;;;30.59;27.59;99830.47;5091151;28;20257;-40
2023/05/01 07:41:20;;;;;;;;;;;;;;;30.21;27.06;99829.47;5092242;28;19912;-40
2023/05/01 07:43:45;;;;;;;;;;;;;;;29.72;26.68;99829.06;5092631;28;19955;-41
2023/05/01 07:46:11;;;;;;;;;;;;;;;29.92;27.22;99833.00;5092713;28;20311;-40
2023/05/01 07:48:36;;;;;;;;;;;;;;;29.86;27.16;99830.78;5091054;28;19912;-40
2023/05/01 07:51:02;;;;;;;;;;;;;;;30.23;26.29;99833.78;5092733;28;19943;-40
2023/05/01 07:53:28;;;;;;;;;;;;;;;29.74;27.47;99829.56;5092476;28;19916;-41
2023/05/01 07:55:53;;;;;;;;;;;;;;;29.59;28.02;99832.81;5093318;28;19919;-40
2023/05/01 07:58:19;;;;;;;;;;;;;;;30.31;26.94;99830.19;5093032;28;19969;-39
2023/05/01 08:00:44;;;;;;;;;;;;;;;29.97;28.62;99846.53;5111628;28;20005;-41
2023/05/01 08:03:10;;;;;;;;;;;;;;;30.38;27.04;99833.22;5112825;28;19912;-40
2023/05/01 08:05:38;;;;;;;;;;;;;;;29.35;27.56;99827.91;5112844;28;20616;-40
2023/05/01 08:08:03;;;;;;;;;;;;;;;30.07;26.89;99839.06;5112908;28;19935;-40
2023/05/01 08:10:28;;;;;;;;;;;;;;;30.38;26.94;99835.97;5105226;28;20336;-40
2023/05/01 08:12:54;;;;;;;;;;;;;;;30.67;27.41;99834.28;5091042;28;19920;-40
2023/05/01 08:15:20;;;;;;;;;;;;;;;30.38;27.28;99844.19;5091633;28;19986;-40
2023/05/01 08:17:45;;;;;;;;;;;;;;;30.68;26.77;99838.66;5100708;28;19985;-41
2023/05/01 08:20:11;;;;;;;;;;;;;;;31.01;25.71;99838.69;5107359;28;20368;-41
2023/05/01 08:22:36;;;;;;;;;;;;;;;31.10;25.90;99835.84;5081388;28;20350;-40
2023/05/01 08:25:03;;;;;;;;;;;;;;;30.14;26.69;99834.66;5080575;28;19956;-40
2023/05/01 08:27:28;;;;;;;;;;;;;;;29.96;26.54;99841.38;5092997;28;19916;-40
2023/05/01 08:29:53;;;;;;;;;;;;;;;30.43;25.96;99837.72;5092684;28;19919;-40
2023/05/01 08:32:19;;;;;;;;;;;;;;;30.31;26.18;99841.97;5093393;28;20284;-40
2023/05/01 08:34:45;;;;;;;;;;;;;;;30.55;25.98;99840.53;5092811;28;19974;-40
2023/05/01 08:37:10;;;;;;;;;;;;;;;30.25;26.42;99840.53;5093016;28;19928;-40
2023/05/01 08:39:35;;;;;;;;;;;;;;;29.54;25.66;99844.75;5092511;28;19969;-40
2023/05/01 08:42:02;;;;;;;;;;;;;;;30.22;25.99;99833.00;5091274;28;19962;-40
2023/05/01 08:44:29;;;;;;;;;;;;;;;29.88;25.14;99834.00;5092188;28;19912;-40
2023/05/01 08:47:06;;;;;;;;;;;;;;;28.45;27.35;99837.63;5092476;28;19919;-42
2023/05/01 08:49:33;;;;;;;;;;;;;;;28.41;27.36;99834.72;5092561;28;20014;-41
2023/05/01 08:52:00;;;;;;;;;;;;;;;29.82;25.67;99836.13;5088935;28;19915;-41
2023/05/01 08:54:26;;;;;;;;;;;;;;;29.73;26.46;99841.66;5092111;28;20369;-41
2023/05/01 08:56:52;;;;;;;;;;;;;;;27.95;28.68;99827.88;5092265;28;19941;-41
2023/05/01 08:59:18;;;;;;;;;;;;;;;28.46;28.70;99823.63;5097678;28;19919;-41
2023/05/01 09:01:44;;;;;;;;;;;;;;;29.13;27.70;99834.41;5112351;28;19918;-41
2023/05/01 09:04:10;;;;;;;;;;;;;;;27.88;27.97;99819.31;5112360;28;20011;-40
2023/05/01 09:06:36;;;;;;;;;;;;;;;27.52;29.41;99838.63;5112543;28;20395;-40
2023/05/01 09:09:01;;;;;;;;;;;;;;;27.55;28.90;99816.94;5112799;27;19919;-40
2023/05/01 09:11:27;;;;;;;;;;;;;;;28.03;28.56;99818.09;5105216;28;20309;-41
2023/05/01 09:13:52;;;;;;;;;;;;;;;27.20;30.33;99824.94;5091735;28;19920;-41
2023/05/01 09:16:18;;;;;;;;;;;;;;;26.13;31.29;99839.13;5092285;28;19934;-40
2023/05/01 09:18:44;;;;;;;;;;;;;;;25.59;32.08;99838.00;5091723;28;20371;-40
2023/05/01 09:21:09;;;;;;;;;;;;;;;25.04;31.81;99841.41;5091481;28;19913;-40
2023/05/01 09:23:36;;;;;;;;;;;;;;;25.53;31.38;99831.84;5091872;28;20029;-40
2023/05/01 09:26:05;;;;;;;;;;;;;;;25.41;32.15;99824.16;5091393;28;19920;-40
2023/05/01 09:28:43;;;;;;;;;;;;;;;25.74;31.91;99824.06;5091949;28;19916;-41
2023/05/01 09:31:22;;;;;;;;;;;;;;;26.09;32.28;99817.13;5091589;28;20282;-41
2023/05/01 09:33:57;;;;;;;;;;;;;;;26.34;31.84;99821.22;5091962;28;19984;-41
2023/05/01 09:36:23;;;;;;;;;;;;;;;26.09;32.20;99825.31;5091601;28;19938;-41
2023/05/01 09:38:48;;;;;;;;;;;;;;;25.94;33.17;99812.00;5091775;28;19916;-40
2023/05/01 09:41:14;;;;;;;;;;;;;;;26.68;32.19;99809.00;5091135;28;19935;-40
2023/05/01 09:43:40;;;;;;;;;;;;;;;25.89;33.00;99820.25;5091861;28;19911;-40
2023/05/01 09:46:11;;;;;;;;;;;;;;;26.03;32.88;99818.34;5091546;28;20042;-41
2023/05/01 09:48:37;;;;;;;;;;;;;;;25.68;32.99;99826.13;5091490;28;19912;-42
2023/05/01 09:51:29;;;;;;;;;;;;;;;25.88;31.86;99816.72;5091565;28;19916;-40
2023/05/01 09:54:04;;;;;;;;;;;;;;;26.88;31.37;99815.91;5089288;28;20388;-40
2023/05/01 09:56:31;;;;;;;;;;;;;;;27.02;30.95;99820.50;5091782;28;19955;-40
2023/05/01 09:58:57;;;;;;;;;;;;;;;27.26;29.76;99812.81;5092721;28;19915;-40
2023/05/01 10:01:41;;;;;;;;;;;;;;;26.22;30.86;99815.50;5088164;28;19920;-41
2023/05/01 10:04:08;;;;;;;;;;;;;;;25.82;30.96;99817.13;5090422;28;19919;-41
2023/05/01 10:06:34;;;;;;;;;;;;;;;25.35;31.39;99809.81;5091457;28;19912;-39
2023/05/01 10:08:59;;;;;;;;;;;;;;;25.04;32.47;99814.97;5090650;28;19924;-41
2023/05/01 10:11:25;;;;;;;;;;;;;;;24.33;33.32;99805.97;5090081;28;19991;-41
2023/05/01 10:14:07;;;;;;;;;;;;;;;25.38;31.95;99813.06;5090999;28;19916;-41
2023/05/01 10:16:33;;;;;;;;;;;;;;;25.74;32.10;99800.38;5091312;28;19922;-41
2023/05/01 10:18:59;;;;;;;;;;;;;;;26.49;30.87;99816.53;5091315;28;19963;-48
2023/05/01 10:21:24;;;;;;;;;;;;;;;26.15;29.96;99820.56;5091110;28;19912;-40
2023/05/01 10:23:50;;;;;;;;;;;;;;;26.14;30.24;99818.94;5090837;28;20395;-41
2023/05/01 10:26:17;;;;;;;;;;;;;;;26.39;29.44;99812.13;5077014;28;20346;-42
2023/05/01 10:28:43;;;;;;;;;;;;;;;25.09;30.20;99833.13;5070497;28;19932;-40
2023/05/01 10:31:10;;;;;;;;;;;;;;;24.76;31.23;99824.94;5070267;28;19931;-40
2023/05/01 10:33:37;;;;;;;;;;;;;;;24.99;31.00;99820.50;5070808;28;20442;-42
2023/05/01 10:36:03;;;;;;;;;;;;;;;25.55;30.80;99814.09;5070720;28;19974;-41
2023/05/01 10:38:34;;;;;;;;;;;;;;;26.39;29.73;99819.47;5069838;28;19917;-42
2023/05/01 10:40:59;;;;;;;;;;;;;;;25.35;30.40;99836.25;5067510;28;19943;-40
2023/05/01 10:43:26;;;;;;;;;;;;;;;26.13;29.72;99823.56;5068587;28;19959;-40
2023/05/01 10:45:52;;;;;;;;;;;;;;;26.39;28.60;99814.84;5068993;28;19969;-40
2023/05/01 10:48:36;;;;;;;;;;;;;;;25.88;30.28;99821.38;5068981;28;19936;-40
2023/05/01 10:51:28;;;;;;;;;;;;;;;25.29;31.59;99818.41;5068710;28;19924;-41
2023/05/01 10:54:12;;;;;;;;;;;;;;;25.42;32.19;99828.50;5067036;28;19928;-40
2023/05/01 10:56:37;;;;;;;;;;;;;;;24.94;32.42;99826.03;5069190;28;20337;-40
2023/05/01 10:59:06;;;;;;;;;;;;;;;25.42;31.88;99823.06;5079990;28;20476;-42
2023/05/01 11:01:31;;;;;;;;;;;;;;;25.26;31.47;99832.59;5108997;28;20580;-41
2023/05/01 11:03:57;;;;;;;;;;;;;;;25.08;32.38;99839.69;5110518;28;19912;-40
2023/05/01 11:06:23;;;;;;;;;;;;;;;25.00;32.45;99826.75;5110886;28;19915;-40
2023/05/01 11:08:48;;;;;;;;;;;;;;;25.26;31.61;99821.72;5110689;28;19916;-40
2023/05/01 11:11:20;;;;;;;;;;;;;;;25.34;31.06;99827.28;5104379;28;20007;-39
2023/05/01 11:14:04;;;;;;;;;;;;;;;25.06;31.21;99833.75;5089606;28;19916;-41
2023/05/01 11:16:32;;;;;;;;;;;;;;;24.68;31.50;99826.44;5090233;28;19912;-40
2023/05/01 11:18:58;;;;;;;;;;;;;;;24.96;31.50;99821.91;5090218;28;19920;-40
2023/05/01 11:21:28;;;;;;;;;;;;;;;25.56;31.37;99832.03;5089477;28;19912;-40
2023/05/01 11:23:53;;;;;;;;;;;;;;;24.60;32.85;99846.16;5090054;28;20501;-40
2023/05/01 11:26:21;;;;;;;;;;;;;;;24.32;33.43;99823.41;5090020;28;19924;-42
2023/05/01 11:28:47;;;;;;;;;;;;;;;25.08;33.38;99818.72;5089558;28;19916;-41
2023/05/01 11:31:16;;;;;;;;;;;;;;;24.72;30.92;99840.25;5088613;28;20379;-41
2023/05/01 11:33:41;;;;;;;;;;;;;;;24.76;31.69;99836.63;5088815;28;19916;-41
2023/05/01 11:36:07;;;;;;;;;;;;;;;24.88;35.04;99833.47;5089939;28;19998;-40
2023/05/01 11:38:33;;;;;;;;;;;;;;;24.80;34.49;99833.34;5090233;28;20048;-41
2023/05/01 11:40:59;;;;;;;;;;;;;;;24.32;35.25;99832.34;5090012;28;19948;-41
2023/05/01 11:43:25;;;;;;;;;;;;;;;23.91;35.40;99832.88;5090192;28;20015;-41
2023/05/01 11:45:53;;;;;;;;;;;;;;;23.09;37.61;99830.16;5087673;28;20407;-41
2023/05/01 11:48:19;;;;;;;;;;;;;;;23.23;37.69;99840.06;5088584;28;20414;-42
2023/05/01 11:50:45;;;;;;;;;;;;;;;23.05;37.46;99831.81;5091612;28;20391;-40
2023/05/01 11:53:10;;;;;;;;;;;;;;;23.35;37.44;99834.25;5092509;28;20027;-42
2023/05/01 11:55:37;;;;;;;;;;;;;;;23.93;36.25;99827.13;5093034;28;19912;-41
2023/05/01 11:58:03;;;;;;;;;;;;;;;23.73;35.58;99826.25;5089998;28;19981;-40
2023/05/01 12:00:30;;;;;;;;;;;;;;;23.76;36.05;99833.00;5111676;28;19966;-40
2023/05/01 12:03:03;;;;;;;;;;;;;;;24.28;35.38;99830.53;5095770;28;19936;-41
2023/05/01 12:05:29;;;;;;;;;;;;;;;23.52;36.80;99814.00;5092091;28;19922;-41
2023/05/01 12:08:11;;;;;;;;;;;;;;;23.72;35.70;99821.94;5092868;28;19935;-41
2023/05/01 12:10:39;;;;;;;;;;;;;;;23.37;36.75;99818.47;5092755;28;19924;-42
2023/05/01 12:13:05;;;;;;;;;;;;;;;23.39;36.44;99796.47;5093175;28;20379;-41
2023/05/01 12:15:31;;;;;;;;;;;;;;;23.95;36.78;99822.22;5093036;28;19919;-40
2023/05/01 12:17:57;;;;;;;;;;;;;;;24.36;35.55;99822.50;5092951;28;20012;-41
2023/05/01 12:20:46;;;;;;;;;;;;;;;24.09;35.99;99814.19;5089710;28;19916;-41
2023/05/01 12:23:12;;;;;;;;;;;;;;;23.96;35.51;99829.28;5093140;28;19916;-41
2023/05/01 12:25:38;;;;;;;;;;;;;;;24.17;34.78;99827.13;5092024;28;19992;-41
2023/05/01 12:28:13;;;;;;;;;;;;;;;24.16;35.00;99817.34;5092152;28;19916;-41
2023/05/01 12:30:38;;;;;;;;;;;;;;;24.55;34.21;99824.47;5092799;28;19912;-41
2023/05/01 12:33:08;;;;;;;;;;;;;;;24.92;33.79;99826.34;5092369;28;19916;-42
2023/05/01 12:35:33;;;;;;;;;;;;;;;24.50;33.94;99822.59;5092119;28;19923;-42
2023/05/01 12:37:58;;;;;;;;;;;;;;;25.57;32.95;99830.16;5092676;28;19912;-41
2023/05/01 12:40:25;;;;;;;;;;;;;;;24.50;34.03;99813.63;5092383;28;19920;-41
2023/05/01 12:42:59;;;;;;;;;;;;;;;24.26;34.37;99819.13;5093100;28;20296;-41
2023/05/01 12:45:24;;;;;;;;;;;;;;;24.24;33.75;99821.31;5092644;28;19920;-42
2023/05/01 12:47:50;;;;;;;;;;;;;;;24.89;33.29;99823.41;5092163;28;19912;-44